createdAt,value
2022-09-15T00:05:01.717Z,98703.86
2022-09-15T00:10:06.386Z,98696.91
2022-09-15T00:15:09.895Z,98689.90
2022-09-15T00:20:12.636Z,98690.58
2022-09-15T00:25:15.577Z,98695.42
2022-09-15T00:30:18.320Z,98699.19
2022-09-15T00:35:21.147Z,98700.07
2022-09-15T00:40:24.016Z,98699.71
2022-09-15T00:45:27.385Z,98692.54
2022-09-15T00:50:32.102Z,98690.40
2022-09-15T00:55:54.349Z,98691.52
2022-09-15T01:01:01.065Z,98693.03
2022-09-15T01:06:20.025Z,98688.86
2022-09-15T01:11:22.908Z,98688.63
2022-09-15T01:22:07.364Z,98685.35
2022-09-15T01:27:41.201Z,98679.80
2022-09-15T01:33:06.798Z,98678.92
2022-09-15T01:38:32.133Z,98673.44
2022-09-15T01:43:40.313Z,98669.67
2022-09-15T01:48:43.545Z,98664.14
2022-09-15T01:53:47.427Z,98656.13
2022-09-15T01:58:51.530Z,98651.41
2022-09-15T02:04:18.226Z,98645.61
2022-09-15T02:09:54.870Z,98647.86
2022-09-15T02:15:08.755Z,98648.55
2022-09-15T02:20:23.759Z,98645.83
2022-09-15T02:25:32.811Z,98647.95
2022-09-15T02:30:41.282Z,98641.55
2022-09-15T02:35:44.359Z,98636.52
2022-09-15T02:40:48.094Z,98631.91
2022-09-15T02:45:51.328Z,98633.98
2022-09-15T02:50:54.125Z,98633.96
2022-09-15T02:55:58.123Z,98638.25
2022-09-15T03:01:08.297Z,98632.50
2022-09-15T03:06:19.892Z,98633.64
2022-09-15T03:11:26.789Z,98630.02
2022-09-15T03:16:32.523Z,98627.01
2022-09-15T03:21:35.862Z,98628.48
2022-09-15T03:26:38.692Z,98620.91
2022-09-15T03:31:41.838Z,98621.33
2022-09-15T03:36:44.755Z,98623.56
2022-09-15T03:41:47.682Z,98623.98
2022-09-15T03:46:51.259Z,98622.86
2022-09-15T03:51:54.028Z,98615.69
2022-09-15T03:56:57.125Z,98616.80
2022-09-15T04:01:59.959Z,98615.85
2022-09-15T04:07:02.707Z,98613.91
2022-09-15T04:12:06.971Z,98611.92
2022-09-15T04:17:10.965Z,98609.07
2022-09-15T04:22:17.672Z,98610.27
2022-09-15T04:27:21.113Z,98604.73
2022-09-15T04:32:23.923Z,98603.65
2022-09-15T04:37:26.841Z,98606.45
2022-09-15T04:42:29.625Z,98609.52
2022-09-15T04:47:32.330Z,98613.95
2022-09-15T04:52:35.058Z,98612.42
2022-09-15T04:57:37.827Z,98615.45
2022-09-15T05:02:40.535Z,98614.06
2022-09-15T05:07:43.660Z,98610.63
2022-09-15T05:12:46.448Z,98612.36
2022-09-15T05:17:49.985Z,98607.86
2022-09-15T05:22:52.706Z,98609.38
2022-09-15T05:27:55.446Z,98607.99
2022-09-15T05:32:58.400Z,98602.21
2022-09-15T05:38:01.125Z,98595.10
2022-09-15T05:43:03.995Z,98590.92
2022-09-15T05:48:06.781Z,98594.63
2022-09-15T05:53:12.158Z,98601.14
2022-09-15T05:58:23.398Z,98594.70
2022-09-15T06:03:30.926Z,98582.03
2022-09-15T06:08:36.780Z,98579.06
2022-09-15T06:13:40.485Z,98580.11
2022-09-15T06:18:43.938Z,98576.36
2022-09-15T06:23:53.996Z,98577.60
2022-09-15T06:29:02.155Z,98574.62
2022-09-15T06:34:11.552Z,98564.98
2022-09-15T06:39:14.287Z,98558.02
2022-09-15T06:44:17.423Z,98555.42
2022-09-15T06:49:21.965Z,98560.34
2022-09-15T06:54:24.749Z,98560.20
2022-09-15T06:59:27.957Z,98562.71
2022-09-15T07:04:38.398Z,98559.27
2022-09-15T07:09:42.802Z,98559.64
2022-09-15T07:14:47.068Z,98563.89
2022-09-15T07:19:50.078Z,98583.45
2022-09-15T07:24:52.972Z,98587.19
2022-09-15T07:29:56.119Z,98593.36
2022-09-15T07:34:59.397Z,98584.23
2022-09-15T07:40:04.928Z,98578.36
2022-09-15T07:45:08.371Z,98578.29
2022-09-15T07:50:11.528Z,98571.98
2022-09-15T07:55:15.768Z,98572.77
2022-09-15T08:00:18.896Z,98570.83
2022-09-15T08:05:26.119Z,98573.97
2022-09-15T08:10:28.870Z,98569.56
2022-09-15T08:15:31.809Z,98561.41
2022-09-15T08:20:34.927Z,98560.88
2022-09-15T08:25:40.846Z,98552.34
2022-09-15T08:30:46.242Z,98557.61
2022-09-15T08:35:49.212Z,98556.42
2022-09-15T08:41:00.527Z,98562.97
2022-09-15T08:46:09.221Z,98563.90
2022-09-15T08:51:20.764Z,98559.75
2022-09-15T08:56:23.532Z,98551.98
2022-09-15T09:01:45.076Z,98548.21
2022-09-15T09:07:14.604Z,98539.41
2022-09-15T09:12:44.851Z,98548.63
2022-09-15T09:18:27.020Z,98547.79
2022-09-15T09:23:43.161Z,98547.70
2022-09-15T09:28:50.373Z,98538.65
2022-09-15T09:34:16.496Z,98535.87
2022-09-15T09:39:19.292Z,98530.88
2022-09-15T09:44:32.125Z,98533.70
2022-09-15T09:49:40.044Z,98533.14
2022-09-15T09:54:42.901Z,98530.64
2022-09-15T09:59:47.743Z,98531.95
2022-09-15T10:04:50.657Z,98535.89
2022-09-15T10:09:59.842Z,98539.10
2022-09-15T10:15:06.842Z,98536.39
2022-09-15T10:20:25.552Z,98532.21
2022-09-15T10:25:49.354Z,98541.01
2022-09-15T10:31:03.348Z,98546.63
2022-09-15T10:36:08.457Z,98548.48
2022-09-15T10:41:31.200Z,98544.52
2022-09-15T10:46:50.665Z,98542.67
2022-09-15T10:52:13.634Z,98552.95
2022-09-15T10:57:35.903Z,98548.50
2022-09-15T11:03:09.834Z,98544.69
2022-09-15T11:08:20.818Z,98539.77
2022-09-15T11:13:26.740Z,98537.81
2022-09-15T11:18:50.446Z,98541.19
2022-09-15T11:24:34.225Z,98538.14
2022-09-15T11:30:02.568Z,98535.38
2022-09-15T11:35:38.464Z,98535.88
2022-09-15T11:41:19.112Z,98539.84
2022-09-15T11:46:51.014Z,98533.20
2022-09-15T11:52:23.286Z,98534.14
2022-09-15T11:57:32.211Z,98536.10
2022-09-15T12:03:13.749Z,98534.20
2022-09-15T12:08:27.436Z,98527.96
2022-09-15T12:13:31.810Z,98523.63
2022-09-15T12:18:54.369Z,98524.86
2022-09-15T12:24:46.119Z,98515.06
2022-09-15T12:29:57.524Z,98519.14
2022-09-15T12:35:15.747Z,98514.16
2022-09-15T12:40:33.557Z,98507.67
2022-09-15T12:45:37.173Z,98505.72
2022-09-15T12:50:43.447Z,98512.77
2022-09-15T12:56:20.929Z,98509.90
2022-09-15T13:01:24.655Z,98508.91
2022-09-15T13:06:29.975Z,98503.92
2022-09-15T13:11:47.545Z,98502.75
2022-09-15T13:17:06.701Z,98500.77
2022-09-15T13:22:12.152Z,98509.37
2022-09-15T13:27:22.423Z,98500.52
2022-09-15T13:32:40.348Z,98508.02
2022-09-15T13:38:32.272Z,98507.05
2022-09-15T13:44:18.003Z,98499.73
2022-09-15T13:49:49.446Z,98503.84
2022-09-15T13:55:21.769Z,98493.88
2022-09-15T14:00:24.748Z,98491.27
2022-09-15T14:05:31.050Z,98487.57
2022-09-15T14:10:42.134Z,98490.80
2022-09-15T14:16:02.299Z,98496.04
2022-09-15T14:21:06.076Z,98497.25
2022-09-15T14:26:14.932Z,98503.62
2022-09-15T14:31:26.521Z,98508.69
2022-09-15T14:36:33.708Z,98508.59
2022-09-15T14:41:37.131Z,98511.27
2022-09-15T14:46:39.936Z,98522.38
2022-09-15T14:51:49.141Z,98528.67
2022-09-15T14:56:54.199Z,98539.80
2022-09-15T15:02:06.259Z,98540.29
2022-09-15T15:07:20.123Z,98541.00
2022-09-15T15:12:36.226Z,98547.94
2022-09-15T15:17:51.102Z,98549.65
2022-09-15T15:23:24.577Z,98546.55
2022-09-15T15:28:37.761Z,98533.85
2022-09-15T15:34:24.270Z,98536.73
2022-09-15T15:39:27.090Z,98531.83
2022-09-15T15:44:31.476Z,98532.60
2022-09-15T15:49:34.708Z,98527.02
2022-09-15T15:54:41.862Z,98529.12
2022-09-15T15:59:46.950Z,98538.35
2022-09-15T16:04:49.913Z,98535.82
2022-09-15T16:09:56.430Z,98537.78
2022-09-15T16:14:59.162Z,98547.50
2022-09-15T16:20:02.432Z,98541.52
2022-09-15T16:25:21.510Z,98538.76
2022-09-15T16:30:24.293Z,98540.20
2022-09-15T16:35:46.017Z,98540.86
2022-09-15T16:40:51.435Z,98544.92
2022-09-15T16:45:55.240Z,98545.14
2022-09-15T16:56:21.120Z,98543.95
2022-09-15T17:01:25.619Z,98547.80
2022-09-15T17:06:29.094Z,98553.50
2022-09-15T17:11:32.313Z,98555.72
2022-09-15T17:16:35.083Z,98553.66
2022-09-15T17:21:37.859Z,98556.47
2022-09-15T17:26:41.061Z,98559.68
2022-09-15T17:31:43.811Z,98556.70
2022-09-15T17:36:46.721Z,98561.70
2022-09-15T17:41:49.516Z,98563.98
2022-09-15T17:46:53.733Z,98566.41
2022-09-15T17:51:56.518Z,98564.59
2022-09-15T17:56:59.649Z,98566.04
2022-09-15T18:02:02.557Z,98567.49
2022-09-15T18:07:11.629Z,98565.47
2022-09-15T18:12:14.777Z,98571.85
2022-09-15T18:17:17.718Z,98575.74
2022-09-15T18:22:23.029Z,98577.27
2022-09-15T18:27:25.950Z,98581.11
2022-09-15T18:32:28.741Z,98582.58
2022-09-15T18:37:31.621Z,98582.50
2022-09-15T18:42:35.396Z,98588.22
2022-09-15T18:47:38.604Z,98590.52
2022-09-15T18:52:41.957Z,98591.08
2022-09-15T18:57:45.466Z,98589.24
2022-09-15T19:02:48.864Z,98589.12
2022-09-15T19:07:51.663Z,98591.14
2022-09-15T19:12:54.777Z,98591.73
2022-09-15T19:17:57.772Z,98593.23
2022-09-15T19:23:00.610Z,98590.66
2022-09-15T19:28:03.849Z,98587.90
2022-09-15T19:33:06.954Z,98590.16
2022-09-15T19:38:09.783Z,98587.75
2022-09-15T19:43:12.651Z,98591.70
2022-09-15T19:48:15.543Z,98591.00
2022-09-15T19:53:18.744Z,98593.84
2022-09-15T19:58:21.664Z,98593.20
2022-09-15T20:03:29.348Z,98601.42
2022-09-15T20:08:32.838Z,98607.77
2022-09-15T20:13:41.420Z,98606.06
2022-09-15T20:18:48.843Z,98604.02
2022-09-15T20:23:52.929Z,98602.17
2022-09-15T20:28:55.658Z,98607.74
2022-09-15T20:34:00.973Z,98603.46
2022-09-15T20:39:06.617Z,98605.23
2022-09-15T20:44:09.585Z,98601.31
2022-09-15T20:49:12.794Z,98599.04
2022-09-15T20:54:15.639Z,98595.04
2022-09-15T20:59:19.488Z,98601.21
2022-09-15T21:04:22.351Z,98603.13
2022-09-15T21:09:25.675Z,98603.15
2022-09-15T21:14:28.455Z,98601.84
2022-09-15T21:19:31.661Z,98598.36
2022-09-15T21:24:34.350Z,98594.98
2022-09-15T21:29:37.189Z,98601.45
2022-09-15T21:34:39.955Z,98602.19
2022-09-15T21:39:43.300Z,98600.38
2022-09-15T21:44:46.116Z,98594.55
2022-09-15T21:49:49.225Z,98592.84
2022-09-15T21:54:52.024Z,98591.58
2022-09-15T21:59:54.793Z,98592.00
2022-09-15T22:04:59.758Z,98589.10
2022-09-15T22:10:02.447Z,98591.73
2022-09-15T22:15:06.309Z,98587.77
2022-09-15T22:20:09.462Z,98585.55
2022-09-15T22:25:12.441Z,98579.91
2022-09-15T22:30:15.185Z,98578.59
2022-09-15T22:35:18.021Z,98578.60
2022-09-15T22:40:20.977Z,98566.20
2022-09-15T22:45:23.781Z,98570.58
2022-09-15T22:50:26.487Z,98580.89
2022-09-15T22:55:32.416Z,98582.08
2022-09-15T23:00:38.296Z,98570.55
2022-09-15T23:05:41.395Z,98564.45
2022-09-15T23:10:44.098Z,98573.70
2022-09-15T23:15:49.116Z,98572.22
2022-09-15T23:21:07.446Z,98576.52
2022-09-15T23:26:12.144Z,98571.23
2022-09-15T23:31:15.733Z,98574.69
2022-09-15T23:36:22.018Z,98583.62
2022-09-15T23:41:24.868Z,98583.54
2022-09-15T23:46:27.607Z,98585.84
2022-09-15T23:51:31.199Z,98587.88
2022-09-15T23:56:34.047Z,98583.79
